Terminal Aerodrome Forecast
Issued by NWS

Home | Current Version | Previous Version | Text Only | Print | Product List | Glossary Off
Versions: 1 2 3 4 5 6 7 8 9 10 11 12 13 14 15 16 17 18 19 20 21

781
FTUS43 KUNR 181259 AAA
TAFGCC
TAF AMD
KGCC 181259Z 1813/1912 36015KT 1SM -SN VV008
     FM182000 36015KT 3/4SM -SN VV008=

USA.gov is the U.S. government's official web portal to all federal, state and local government web resources and services.